• Join FlightAware (Why Join?)
  • Login
  • US Flag 
03:24PM EST


 

Airport Tracker/Info


-or-


 

Live Flight TrackerFlight Track Log ✈ N501RL ✈ 22-Apr-2013 ✈ KMGM - KHKS

Flight Track Log - Related Links

Times and Time Zones

All times are in EDT time to prevent confusion due to time zone crossing. See the N501RL flight status page for this flight to view local times or setup timezone preferences in your user account.

Time Position Orientation Groundspeed Altitude Reporting Facility
EDT Latitude Longitude Course Direction KTS MPH feet Rate Location/Type
09:50AM 32.3889 -86.3436 270° West 269 310 6,200  Level Atlanta Center
09:51AM 32.3978 -86.4175 278° West 195 224 8,500 1,980 Climbing Atlanta Center
09:52AM 32.3983 -86.4964 270° West 201 231 10,200 1,740 Climbing Atlanta Center
09:53AM 32.3967 -86.5825 269° West 236 272 12,000 1,860 Climbing Atlanta Center
09:54AM 32.3000 -86.8623 270° West  Level FlightAware Approximate
09:54AM 32.3969 -86.6636 270° West 253 291 14,000  Level Atlanta Center
09:55AM 32.3000 -86.9421 270° West  Level FlightAware Approximate
09:55AM 32.3975 -86.7447 270° West 253 291 15,800  Level Atlanta Center
09:56AM 32.3975 -86.8283 270° West 253 291 17,400 1,080 Climbing Atlanta Center
09:57AM 32.3978 -86.9097 270° West 253 291 18,000 300 Climbing Atlanta Center
09:58AM 32.3978 -87.0031 270° West 265 305 18,000  Level Atlanta Center
09:59AM 32.3953 -87.0989 268° West 278 320 18,000  Level Atlanta Center
10:00AM 32.3950 -87.1947 270° West 294 338 18,000  Level Atlanta Center
10:01AM 32.3947 -87.2933 270° West 294 338 18,000  Level Atlanta Center
10:02AM 32.3961 -87.3917 271° West 307 353 18,000  Level Atlanta Center
10:03AM 32.3936 -87.4875 268° West 307 353 18,000  Level Atlanta Center
10:04AM 32.3928 -87.5858 269° West 307 353 18,000  Level Atlanta Center
10:06AM 32.3881 -87.7619 268° West 322 371 18,000  Level Memphis Center
10:07AM 32.3881 -87.8628 270° West 317 365 18,000  Level Memphis Center
10:08AM 32.3858 -87.9614 268° West 307 353 18,000  Level Memphis Center
10:09AM 32.3836 -88.0622 269° West 307 353 18,000  Level Memphis Center
10:10AM 32.3831 -88.1606 270° West 307 353 18,000 -60 Level Memphis Center
10:11AM 32.3806 -88.2567 268° West 307 353 17,900 -60 Descending Memphis Center
10:12AM 32.3781 -88.3575 268° West 307 353 17,900  Level Memphis Center
10:13AM 32.3756 -88.4533 268° West 307 353 17,900  Level Memphis Center
10:14AM 32.3767 -88.5369 271° West 307 353 17,900 -300 Level Memphis Center
10:15AM 32.3761 -88.6428 270° West 307 353 17,300 -720 Descending Memphis Center
10:16AM 32.3733 -88.7436 268° West 312 359 16,500 -900 Descending Memphis Center
10:17AM 32.3725 -88.8347 269° West 301 346 15,600 -1,080 Descending Memphis Center
10:18AM 32.3714 -88.9233 269° West 283 326 14,400 -1,200 Descending Memphis Center
10:19AM 32.3703 -89.0169 269° West 283 326 13,300 -720 Descending Memphis Center
10:20AM 32.3650 -89.1078 266° West 283 326 13,000 -180 Descending Memphis Center
10:21AM 32.3636 -89.1914 269° West 276 318 13,000  Level Memphis Center
10:22AM 32.3622 -89.2703 269° West 264 304 13,000  Level Memphis Center
10:23AM 32.3589 -89.3539 267° West 253 291 13,000 -360 Level Memphis Center
10:24AM 32.3594 -89.4400 270° West 253 291 12,300 -660 Descending Memphis Center
10:25AM 32.3622 -89.5261 272° West 258 297 11,700 -720 Descending Memphis Center
10:26AM 32.3775 -89.6094 282° West 264 304 10,900 -1,200 Descending Memphis Center
10:27AM 32.3903 -89.6931 280° West 264 304 9,300 -1,800 Descending Memphis Center
10:28AM 32.4011 -89.7742 279° West 258 297 7,400 -1,680 Descending Memphis Center
10:29AM 32.4119 -89.8528 279° West 253 291 6,000 -1,020 Descending Memphis Center
10:30AM 32.4228 -89.9217 281° West 238 274 5,400 -540 Descending Memphis Center
10:31AM 32.4314 -89.9808 280° West 211 243 5,000 -660 Descending Memphis Center
10:32AM 32.4294 -90.0372 268° West 190 219 4,100 -1,020 Descending Memphis Center
10:33AM 32.4253 -90.1039 266° West 184 212 3,000 -1,080 Descending Memphis Center
10:34AM 32.4214 -90.1678 266° West 184 212 2,000 -660 Descending Memphis Center
10:35AM 32.4150 -90.2219 262° West 184 212 1,700 -420 Descending Memphis Center
10:36AM 32.3839 -90.2442 211° Southwest 136 157 1,200 -540 Descending Memphis Center
10:37AM 32.3586 -90.2344 162° South 103 119 700 -540 Descending Memphis Center